createdAt,value
2023-05-05T00:00:43.397Z,99.9
2023-05-05T00:04:54.423Z,99.9
2023-05-05T00:06:58.316Z,99.9
2023-05-05T00:11:06.075Z,99.9
2023-05-05T00:13:10.066Z,99.9
2023-05-05T00:22:32.343Z,99.9
2023-05-05T00:24:36.233Z,99.9
2023-05-05T00:26:40.125Z,99.9
2023-05-05T00:28:43.988Z,99.9
2023-05-05T00:30:51.176Z,99.9
2023-05-05T00:32:55.124Z,99.9
2023-05-05T00:34:58.922Z,99.9
2023-05-05T00:37:02.828Z,99.9
2023-05-05T00:39:06.834Z,99.9
2023-05-05T00:41:10.587Z,99.9
2023-05-05T00:43:14.473Z,99.9
2023-05-05T00:45:21.639Z,99.9
2023-05-05T00:49:29.453Z,99.9
2023-05-05T00:51:33.298Z,99.9
2023-05-05T00:55:41.043Z,99.9
2023-05-05T01:03:59.940Z,99.9
2023-05-05T01:06:03.762Z,99.9
2023-05-05T01:08:07.631Z,99.9
2023-05-05T01:10:19.795Z,99.9
2023-05-05T01:12:15.406Z,99.9
2023-05-05T01:14:22.552Z,99.9
2023-05-05T01:16:26.434Z,99.9
2023-05-05T01:18:30.307Z,99.9
2023-05-05T01:19:33.931Z,99.9
2023-05-05T01:21:37.790Z,99.9
2023-05-05T01:23:41.686Z,99.9
2023-05-05T01:25:45.548Z,99.9
2023-05-05T01:27:52.695Z,99.9
2023-05-05T01:29:56.592Z,99.9
2023-05-05T01:32:00.599Z,99.9
2023-05-05T01:34:04.356Z,99.9
2023-05-05T01:36:08.252Z,99.9
2023-05-05T01:38:12.124Z,99.9
2023-05-05T01:40:16.027Z,99.9
2023-05-05T01:42:23.176Z,99.9
2023-05-05T01:44:27.078Z,99.9
2023-05-05T01:46:30.925Z,99.9
2023-05-05T01:48:34.817Z,99.9
2023-05-05T01:50:38.693Z,99.9
2023-05-05T01:52:42.619Z,99.9
2023-05-05T01:54:46.467Z,99.9
2023-05-05T01:56:53.623Z,99.9
2023-05-05T01:58:57.502Z,99.9
2023-05-05T02:01:01.399Z,99.9
2023-05-05T02:03:05.332Z,99.9
2023-05-05T02:05:09.074Z,99.9
2023-05-05T02:07:12.968Z,99.9
2023-05-05T02:16:35.336Z,99.9
2023-05-05T02:18:39.222Z,99.9
2023-05-05T02:20:43.144Z,99.9
2023-05-05T02:24:54.163Z,99.9
2023-05-05T02:26:58.035Z,99.9
2023-05-05T02:29:01.919Z,99.9
2023-05-05T02:31:05.808Z,99.9
2023-05-05T02:33:09.662Z,99.9
2023-05-05T02:35:13.548Z,99.9
2023-05-05T02:37:17.428Z,99.9
2023-05-05T02:39:24.584Z,99.9
2023-05-05T02:41:28.458Z,99.9
2023-05-05T02:43:32.343Z,99.9
2023-05-05T02:45:36.237Z,99.9
2023-05-05T02:47:40.287Z,99.9
2023-05-05T02:49:43.991Z,99.9
2023-05-05T02:51:47.872Z,99.9
2023-05-05T02:55:58.875Z,99.9
2023-05-05T02:58:02.768Z,99.9
2023-05-05T03:00:06.877Z,99.9
2023-05-05T03:02:10.483Z,99.9
2023-05-05T03:04:14.372Z,99.9
2023-05-05T03:06:18.251Z,99.9
2023-05-05T03:08:25.398Z,99.9
2023-05-05T03:10:29.279Z,99.9
2023-05-05T03:12:33.170Z,99.9
2023-05-05T03:31:32.524Z,99.9
2023-05-05T03:33:36.386Z,99.9
2023-05-05T03:35:43.558Z,99.9
2023-05-05T03:37:47.447Z,99.9
2023-05-05T03:39:51.315Z,99.9
2023-05-05T03:43:59.063Z,99.9
2023-05-05T03:46:02.987Z,99.9
2023-05-05T03:48:06.924Z,99.9
2023-05-05T03:50:13.968Z,99.9
2023-05-05T03:52:17.866Z,99.9
2023-05-05T03:54:21.738Z,99.9
2023-05-05T03:56:25.604Z,99.9
2023-05-05T03:58:29.492Z,99.9
2023-05-05T04:00:33.368Z,99.9
2023-05-05T04:02:37.328Z,99.9
2023-05-05T04:11:59.651Z,99.9
2023-05-05T04:14:03.519Z,99.9
2023-05-05T04:16:07.426Z,99.9
2023-05-05T04:20:18.455Z,99.9
2023-05-05T04:22:22.363Z,99.9
2023-05-05T04:24:27.863Z,99.9
2023-05-05T04:26:31.705Z,99.9
2023-05-05T04:30:39.498Z,99.9
2023-05-05T04:38:58.329Z,99.9
2023-05-05T04:41:02.131Z,99.9
2023-05-05T04:43:05.995Z,99.9
2023-05-05T04:45:09.903Z,99.9
2023-05-05T04:47:17.035Z,99.9
2023-05-05T04:49:20.902Z,99.9
2023-05-05T04:51:24.765Z,99.9
2023-05-05T04:53:28.672Z,99.9
2023-05-05T04:55:32.527Z,99.9
2023-05-05T04:57:36.449Z,99.9
2023-05-05T04:59:40.309Z,99.9
2023-05-05T05:01:47.507Z,99.9
2023-05-05T05:03:51.357Z,99.9
2023-05-05T05:05:55.200Z,99.9
2023-05-05T05:06:59.419Z,99.9
2023-05-05T05:09:02.642Z,99.9
2023-05-05T05:13:12.532Z,99.9
2023-05-05T05:15:17.552Z,99.9
2023-05-05T05:21:29.196Z,99.9
2023-05-05T05:23:33.073Z,99.9
2023-05-05T05:25:36.927Z,99.9
2023-05-05T05:35:59.589Z,99.9
2023-05-05T05:38:03.452Z,99.9
2023-05-05T05:40:07.468Z,99.9
2023-05-05T05:42:11.223Z,99.9
2023-05-05T05:44:18.348Z,99.9
2023-05-05T05:46:22.269Z,99.9
2023-05-05T05:48:26.092Z,99.9
2023-05-05T05:50:29.966Z,99.9
2023-05-05T05:58:48.729Z,99.6
2023-05-05T06:00:52.569Z,99.6
2023-05-05T06:04:00.179Z,99.6
2023-05-05T06:06:03.862Z,99.7
2023-05-05T06:08:07.744Z,99.9
2023-05-05T06:10:26.432Z,99.9
2023-05-05T06:12:18.772Z,99.3
2023-05-05T06:14:22.613Z,98.9
2023-05-05T06:16:26.580Z,98.9
2023-05-05T06:18:30.307Z,98.9
2023-05-05T06:20:34.143Z,98.9
2023-05-05T06:22:38.003Z,99.2
2023-05-05T06:26:48.956Z,99.9
2023-05-05T06:30:56.663Z,99.4
2023-05-05T06:33:00.604Z,97.5
2023-05-05T06:37:08.174Z,95.1
2023-05-05T06:43:22.937Z,93
2023-05-05T06:49:34.442Z,90.4
2023-05-05T06:53:42.110Z,90
2023-05-05T06:55:49.223Z,88.8
2023-05-05T06:57:53.060Z,88.7
2023-05-05T06:59:56.914Z,87.4
2023-05-05T07:02:22.512Z,87.4
2023-05-05T07:04:25.594Z,88
2023-05-05T07:06:29.436Z,88.1
2023-05-05T07:08:36.511Z,88.1
2023-05-05T07:12:44.170Z,87.5
2023-05-05T07:14:47.939Z,87.4
2023-05-05T07:16:51.835Z,86.7
2023-05-05T07:18:55.540Z,86.5
2023-05-05T07:20:59.326Z,83.7
2023-05-05T07:25:10.218Z,81.5
2023-05-05T07:31:21.571Z,81.2
2023-05-05T07:39:40.000Z,77.7
2023-05-05T07:41:43.772Z,76.5
2023-05-05T07:43:47.521Z,76.4
2023-05-05T07:45:51.307Z,75.1
2023-05-05T07:47:55.112Z,74.4
2023-05-05T07:52:05.914Z,73.8
2023-05-05T07:54:09.665Z,74.1
2023-05-05T07:56:13.396Z,74.4
2023-05-05T07:57:16.950Z,73.8
2023-05-05T08:01:24.491Z,72.7
2023-05-05T08:03:28.398Z,72.9
2023-05-05T08:11:46.538Z,70.7
2023-05-05T08:13:50.281Z,70.1
2023-05-05T08:20:04.830Z,69.7
2023-05-05T08:22:08.546Z,69.7
2023-05-05T08:24:12.326Z,70.3
2023-05-05T08:28:19.827Z,70
2023-05-05T08:32:29.085Z,69.6
2023-05-05T08:34:34.380Z,67.4
2023-05-05T08:36:38.122Z,67
2023-05-05T08:38:41.856Z,67.4
2023-05-05T08:40:45.576Z,67.6
2023-05-05T08:42:49.331Z,67.5
2023-05-05T08:46:56.844Z,68.4
2023-05-05T08:51:07.545Z,75.8
2023-05-05T08:54:14.771Z,81.2
2023-05-05T08:56:18.486Z,82.5
2023-05-05T08:58:22.242Z,83.9
2023-05-05T09:00:25.988Z,84.1
2023-05-05T09:02:33.102Z,85.1
2023-05-05T09:10:47.967Z,82.6
2023-05-05T09:14:57.236Z,82.7
2023-05-05T09:19:06.248Z,83.7
2023-05-05T09:23:13.735Z,82.4
2023-05-05T09:33:35.800Z,81.7
2023-05-05T09:35:39.526Z,83.3
2023-05-05T09:37:43.311Z,83.9
2023-05-05T09:46:01.619Z,86.5
2023-05-05T09:51:12.658Z,86.5
2023-05-05T09:53:16.399Z,86.5
2023-05-05T09:55:20.179Z,86.3
2023-05-05T09:57:23.933Z,86.3
2023-05-05T09:59:30.982Z,86.1
2023-05-05T10:01:34.761Z,86.2
2023-05-05T10:03:38.479Z,86.1
2023-05-05T10:05:42.253Z,86.8
2023-05-05T10:07:46.022Z,87.4
2023-05-05T10:09:49.784Z,87.7
2023-05-05T10:11:53.516Z,88.2
2023-05-05T10:14:00.599Z,88.8
2023-05-05T10:16:04.421Z,89.3
2023-05-05T10:18:08.694Z,89.6
2023-05-05T10:20:11.895Z,89.9
2023-05-05T10:24:20.995Z,90.6
2023-05-05T10:26:24.774Z,90.7
2023-05-05T10:28:31.839Z,90.6
2023-05-05T10:30:35.649Z,90.8
2023-05-05T10:32:52.974Z,90.6
2023-05-05T10:34:43.260Z,90.6
2023-05-05T10:36:46.972Z,90.4
2023-05-05T10:38:50.719Z,90.3
2023-05-05T10:40:54.521Z,90.2
2023-05-05T10:43:01.612Z,90.3
2023-05-05T10:47:09.143Z,91
2023-05-05T10:49:31.555Z,91.5
2023-05-05T10:53:39.080Z,91.5
2023-05-05T11:01:57.496Z,92.3
2023-05-05T11:04:01.321Z,92.5
2023-05-05T11:06:05.047Z,92.7
2023-05-05T11:10:16.057Z,92.3
2023-05-05T11:12:19.658Z,91.9
2023-05-05T11:14:23.418Z,91
2023-05-05T11:24:45.548Z,89.4
2023-05-05T11:26:49.312Z,89.2
2023-05-05T11:28:53.052Z,89.4
2023-05-05T11:30:57.902Z,90.1
2023-05-05T11:33:00.610Z,89.6
2023-05-05T11:35:04.394Z,92
2023-05-05T11:37:08.141Z,93.3
2023-05-05T11:43:22.819Z,99.1
2023-05-05T11:44:26.350Z,99.3
2023-05-05T11:46:30.244Z,99.7
2023-05-05T11:48:33.979Z,99.7
2023-05-05T11:50:37.813Z,99.9
2023-05-05T11:52:44.887Z,99.9
2023-05-05T11:54:48.712Z,99.9
2023-05-05T11:56:52.533Z,99.9
2023-05-05T12:09:18.873Z,99.9
2023-05-05T12:11:22.694Z,99.9
2023-05-05T12:13:26.676Z,99.9
2023-05-05T12:15:30.418Z,99.9
2023-05-05T12:17:34.276Z,99.9
2023-05-05T12:19:38.108Z,99.9
2023-05-05T12:21:45.260Z,99.9
2023-05-05T12:34:08.513Z,99.9
2023-05-05T12:36:15.661Z,99.9
2023-05-05T12:38:19.466Z,99.9
2023-05-05T12:40:23.351Z,99.9
2023-05-05T12:41:26.924Z,99.9
2023-05-05T12:49:45.723Z,99.9
2023-05-05T13:04:16.167Z,99.9
2023-05-05T13:08:23.920Z,99.9
2023-05-05T13:10:27.793Z,99.9
2023-05-05T13:12:31.703Z,99.9
2023-05-05T13:14:35.552Z,99.9
2023-05-05T13:16:39.425Z,99.9
2023-05-05T13:22:54.365Z,99.9
2023-05-05T13:27:02.109Z,99.9
2023-05-05T13:29:05.992Z,99.9
2023-05-05T13:31:09.890Z,99.9
2023-05-05T13:33:16.974Z,99.9
2023-05-05T13:35:20.859Z,99.9
2023-05-05T13:37:24.761Z,99.9
2023-05-05T13:42:36.093Z,99.9
2023-05-05T13:44:39.978Z,99.9
2023-05-05T13:52:58.757Z,99.9
2023-05-05T14:15:47.938Z,99.9
2023-05-05T14:19:55.693Z,99.9
2023-05-05T14:21:59.550Z,99.9
2023-05-05T14:24:03.439Z,99.9
2023-05-05T14:26:07.308Z,99.9
2023-05-05T14:28:11.196Z,99.9
2023-05-05T14:36:50.986Z,99.9
2023-05-05T14:40:58.726Z,99.9
2023-05-05T14:59:40.120Z,99.9
2023-05-05T15:01:44.019Z,99.9
2023-05-05T15:05:51.701Z,99.9
2023-05-05T15:07:55.568Z,99.9
2023-05-05T15:09:59.440Z,99.9
2023-05-05T15:12:06.574Z,99.9
2023-05-05T15:14:10.455Z,99.9
2023-05-05T15:16:14.337Z,99.9
2023-05-05T15:18:18.168Z,99.9
2023-05-05T15:20:22.040Z,99.9
2023-05-05T15:31:48.389Z,99.9
2023-05-05T15:33:52.224Z,99.9
2023-05-05T15:35:56.088Z,99.9
2023-05-05T15:40:07.045Z,99.9
2023-05-05T15:42:10.959Z,99.9
2023-05-05T15:44:14.791Z,99.9
2023-05-05T15:46:18.707Z,99.9
2023-05-05T15:48:22.506Z,99.9
2023-05-05T15:50:26.360Z,99.9
2023-05-05T15:52:30.232Z,99.9
2023-05-05T15:56:41.212Z,99.9
2023-05-05T15:58:45.103Z,99.9
2023-05-05T16:00:48.998Z,99.9
2023-05-05T16:02:52.923Z,99.9
2023-05-05T16:04:56.635Z,99.9
2023-05-05T16:07:00.489Z,99.9
2023-05-05T16:09:07.682Z,99.9
2023-05-05T16:11:11.512Z,99.9
2023-05-05T16:13:15.514Z,99.9
2023-05-05T16:15:19.224Z,99.9
2023-05-05T16:17:23.044Z,99.9
2023-05-05T16:19:28.575Z,99.9
2023-05-05T16:21:32.390Z,99.9
2023-05-05T16:23:39.493Z,99.9
2023-05-05T16:27:47.203Z,99.9
2023-05-05T16:30:54.648Z,99.9
2023-05-05T16:43:20.993Z,99.9
2023-05-05T16:45:24.835Z,99.9
2023-05-05T16:47:28.735Z,99.9
2023-05-05T16:51:39.676Z,99.9
2023-05-05T16:53:43.543Z,99.9
2023-05-05T17:12:21.452Z,99.9
2023-05-05T17:27:55.322Z,99.9
2023-05-05T17:29:59.269Z,99.9
2023-05-05T17:32:03.141Z,99.9
2023-05-05T17:34:10.135Z,99.9
2023-05-05T17:36:13.982Z,99.9
2023-05-05T17:38:17.869Z,99.9
2023-05-05T17:42:25.569Z,99.9
2023-05-05T17:44:29.412Z,99.9
2023-05-05T17:46:33.303Z,99.9
2023-05-05T17:48:40.464Z,99.9
2023-05-05T17:50:44.265Z,99.9
2023-05-05T17:52:48.108Z,99.9
2023-05-05T17:56:55.825Z,99.9
2023-05-05T17:58:59.702Z,99.9
2023-05-05T18:01:03.594Z,99.9
2023-05-05T18:03:10.779Z,99.9
2023-05-05T18:09:22.247Z,99.9
2023-05-05T18:11:26.091Z,99.9
2023-05-05T18:17:40.937Z,99.9
2023-05-05T18:19:46.151Z,99.9
2023-05-05T18:21:48.636Z,99.9
2023-05-05T18:24:18.538Z,99.9
2023-05-05T18:26:11.696Z,99.9
2023-05-05T18:28:15.547Z,99.9
2023-05-05T18:30:22.655Z,99.9
2023-05-05T18:32:26.570Z,99.9
2023-05-05T18:34:30.368Z,99.9
2023-05-05T18:36:34.249Z,99.9
2023-05-05T18:38:38.147Z,99.9
2023-05-05T18:40:41.961Z,99.9
2023-05-05T18:42:45.829Z,99.9
2023-05-05T18:44:52.938Z,99.9
2023-05-05T18:49:00.775Z,99.9
2023-05-05T18:51:04.541Z,99.9
2023-05-05T18:53:08.386Z,99.9
2023-05-05T19:11:46.506Z,99.9
2023-05-05T19:13:53.611Z,99.9
2023-05-05T19:15:57.488Z,99.9
2023-05-05T19:33:35.284Z,99.9
2023-05-05T19:35:39.161Z,99.9
2023-05-05T19:37:43.031Z,99.9
2023-05-05T19:39:46.907Z,99.9
2023-05-05T19:48:05.688Z,99.9
2023-05-05T19:50:09.950Z,99.9
2023-05-05T19:52:13.432Z,99.9
2023-05-05T19:54:17.316Z,99.9
2023-05-05T19:56:24.484Z,99.9
2023-05-05T19:58:28.324Z,99.9
2023-05-05T20:00:32.200Z,99.9
2023-05-05T20:02:37.021Z,99.9
2023-05-05T20:04:39.939Z,99.9
2023-05-05T20:16:06.223Z,99.9
2023-05-05T20:18:10.042Z,99.9
2023-05-05T20:28:32.646Z,99.9
2023-05-05T20:32:40.430Z,99.9
2023-05-05T20:36:48.198Z,99.9
2023-05-05T20:40:59.157Z,99.9
2023-05-05T20:53:25.594Z,99.9
2023-05-05T20:55:29.460Z,99.9
2023-05-05T20:57:33.335Z,99.9
2023-05-05T20:59:37.197Z,99.9
2023-05-05T21:01:41.094Z,99.9
2023-05-05T21:03:44.933Z,99.9
2023-05-05T21:05:48.799Z,99.9
2023-05-05T21:13:07.236Z,99.9
2023-05-05T21:17:14.947Z,99.9
2023-05-05T21:19:18.807Z,99.9
2023-05-05T21:21:25.920Z,99.9
2023-05-05T21:23:29.785Z,99.9
2023-05-05T21:25:33.650Z,99.9
2023-05-05T21:29:41.374Z,99.9
2023-05-05T21:31:45.267Z,99.9
2023-05-05T21:38:00.118Z,99.9
2023-05-05T21:40:03.938Z,99.9
2023-05-05T21:48:19.408Z,99.9
2023-05-05T21:56:38.171Z,99.9
2023-05-05T22:04:56.866Z,99.9
2023-05-05T22:07:00.768Z,99.9
2023-05-05T22:11:29.827Z,99.9
2023-05-05T22:13:33.661Z,99.9
2023-05-05T22:17:46.268Z,99.9
2023-05-05T22:21:53.973Z,99.9
2023-05-05T22:34:20.425Z,99.9
2023-05-05T22:36:24.299Z,99.9
2023-05-05T22:38:28.167Z,99.9
2023-05-05T22:40:32.034Z,99.9
2023-05-05T22:42:35.894Z,99.9
2023-05-05T22:44:39.748Z,99.9
2023-05-05T22:46:46.989Z,99.9
2023-05-05T22:48:50.754Z,99.9
2023-05-05T22:52:58.508Z,99.9
2023-05-05T22:57:06.200Z,99.9
2023-05-05T23:03:21.075Z,99.9
2023-05-05T23:05:24.970Z,99.9
2023-05-05T23:06:28.529Z,99.9
2023-05-05T23:08:32.400Z,99.9
2023-05-05T23:10:36.265Z,99.9
2023-05-05T23:12:40.168Z,99.9
2023-05-05T23:14:47.223Z,99.9
2023-05-05T23:16:51.166Z,99.9
2023-05-05T23:20:58.849Z,99.9
2023-05-05T23:27:10.410Z,99.9
2023-05-05T23:29:17.550Z,99.9
2023-05-05T23:31:21.554Z,99.9
2023-05-05T23:39:36.878Z,99.9
2023-05-05T23:41:40.738Z,99.9
2023-05-05T23:45:51.740Z,99.9
2023-05-05T23:47:55.663Z,99.9
2023-05-05T23:49:59.471Z,99.9
2023-05-05T23:52:03.344Z,99.9
2023-05-05T23:54:07.216Z,99.9
2023-05-05T23:56:11.080Z,99.9
2023-05-05T23:58:18.193Z,99.9
